createdAt,value
2022-12-11T00:00:48.491Z,84.73
2022-12-11T00:03:19.996Z,84.70
2022-12-11T00:05:49.917Z,84.05
2022-12-11T00:08:19.762Z,84.45
2022-12-11T00:10:51.242Z,85.12
2022-12-11T00:13:21.028Z,85.00
2022-12-11T00:15:53.408Z,84.99
2022-12-11T00:18:23.255Z,84.90
2022-12-11T00:20:53.015Z,85.05
2022-12-11T00:23:22.807Z,84.47
2022-12-11T00:25:52.758Z,84.40
2022-12-11T00:28:22.547Z,83.89
2022-12-11T00:30:55.418Z,83.94
2022-12-11T00:33:25.229Z,84.20
2022-12-11T00:35:54.986Z,84.49
2022-12-11T00:38:24.746Z,84.89
2022-12-11T00:40:54.618Z,85.16
2022-12-11T00:43:24.394Z,85.34
2022-12-11T00:45:56.877Z,84.97
2022-12-11T00:48:26.718Z,84.83
2022-12-11T00:50:56.634Z,84.61
2022-12-11T00:53:26.538Z,85.08
2022-12-11T00:55:56.426Z,84.96
2022-12-11T00:58:26.307Z,85.67
2022-12-11T01:00:59.049Z,85.12
2022-12-11T01:03:28.938Z,85.25
2022-12-11T01:05:58.727Z,84.98
2022-12-11T01:08:28.668Z,85.12
2022-12-11T01:11:02.961Z,85.00
2022-12-11T01:13:32.746Z,85.54
2022-12-11T01:16:10.284Z,85.67
2022-12-11T01:18:40.398Z,85.67
2022-12-11T01:21:11.778Z,85.68
2022-12-11T01:23:42.480Z,85.47
2022-12-11T01:26:14.995Z,85.79
2022-12-11T01:28:45.840Z,86.49
2022-12-11T01:31:20.198Z,86.59
2022-12-11T01:33:50.040Z,87.07
2022-12-11T01:36:22.154Z,86.92
2022-12-11T01:38:54.440Z,87.68
2022-12-11T01:41:24.676Z,87.28
2022-12-11T01:44:02.924Z,86.71
2022-12-11T01:46:36.610Z,87.25
2022-12-11T01:49:08.865Z,87.42
2022-12-11T01:51:43.247Z,87.32
2022-12-11T01:54:17.058Z,87.19
2022-12-11T01:56:48.686Z,86.93
2022-12-11T01:59:21.704Z,87.50
2022-12-11T02:01:57.801Z,87.36
2022-12-11T02:04:28.117Z,87.26
2022-12-11T02:06:58.564Z,87.47
2022-12-11T02:09:31.950Z,87.41
2022-12-11T02:12:06.332Z,87.15
2022-12-11T02:14:45.934Z,87.52
2022-12-11T02:17:23.327Z,87.81
2022-12-11T02:20:05.421Z,87.80
2022-12-11T02:22:55.740Z,87.91
2022-12-11T02:25:34.146Z,87.79
2022-12-11T02:28:21.290Z,87.97
2022-12-11T02:30:57.212Z,88.06
2022-12-11T02:33:39.896Z,87.72
2022-12-11T02:36:12.887Z,88.03
2022-12-11T02:38:50.660Z,87.95
2022-12-11T02:41:23.089Z,88.37
2022-12-11T02:43:58.107Z,87.90
2022-12-11T02:46:29.070Z,87.91
2022-12-11T02:48:59.816Z,87.97
2022-12-11T02:51:37.016Z,87.81
2022-12-11T02:54:09.803Z,87.90
2022-12-11T02:56:45.037Z,87.81
2022-12-11T02:59:21.858Z,87.48
2022-12-11T03:01:51.779Z,87.62
2022-12-11T03:04:24.921Z,87.79
2022-12-11T03:07:00.064Z,87.61
2022-12-11T03:09:30.390Z,87.99
2022-12-11T03:12:00.248Z,88.55
2022-12-11T03:14:32.741Z,88.78
2022-12-11T03:17:10.988Z,87.58
2022-12-11T03:19:44.630Z,88.27
2022-12-11T03:22:19.385Z,88.53
2022-12-11T03:24:53.887Z,88.83
2022-12-11T03:27:33.232Z,88.79
2022-12-11T03:30:10.706Z,88.59
2022-12-11T03:32:47.403Z,88.33
2022-12-11T03:35:22.520Z,88.45
2022-12-11T03:37:55.025Z,87.71
2022-12-11T03:40:28.460Z,87.92
2022-12-11T03:43:00.624Z,88.45
2022-12-11T03:45:33.311Z,88.04
2022-12-11T03:48:05.614Z,87.65
2022-12-11T03:50:37.422Z,88.33
2022-12-11T03:53:08.623Z,88.15
2022-12-11T03:55:40.484Z,88.26
2022-12-11T03:58:10.818Z,88.25
2022-12-11T04:00:43.265Z,87.57
2022-12-11T04:03:16.555Z,86.77
2022-12-11T04:05:48.918Z,87.55
2022-12-11T04:08:20.741Z,87.98
2022-12-11T04:11:10.846Z,87.86
2022-12-11T04:13:41.084Z,88.44
2022-12-11T04:16:11.017Z,87.75
2022-12-11T04:18:53.310Z,88.04
2022-12-11T04:21:39.429Z,88.06
2022-12-11T04:24:19.189Z,88.32
2022-12-11T04:26:50.682Z,88.15
2022-12-11T04:29:20.496Z,87.97
2022-12-11T04:31:53.415Z,87.70
2022-12-11T04:34:23.304Z,87.27
2022-12-11T04:36:53.233Z,87.61
2022-12-11T04:39:23.081Z,87.80
2022-12-11T04:41:52.903Z,87.78
2022-12-11T04:44:22.726Z,87.58
2022-12-11T04:46:55.178Z,87.48
2022-12-11T04:49:24.995Z,87.41
2022-12-11T04:51:54.827Z,87.41
2022-12-11T04:54:24.915Z,87.31
2022-12-11T04:56:54.746Z,88.07
2022-12-11T04:59:24.683Z,87.73
2022-12-11T05:01:57.680Z,87.67
2022-12-11T05:04:27.567Z,87.70
2022-12-11T05:06:57.414Z,87.91
2022-12-11T05:09:27.450Z,88.35
2022-12-11T05:11:57.487Z,88.59
2022-12-11T05:14:27.636Z,88.29
2022-12-11T05:17:00.423Z,88.12
2022-12-11T05:19:30.592Z,88.25
2022-12-11T05:22:00.410Z,87.75
2022-12-11T05:24:30.237Z,87.29
2022-12-11T05:27:02.877Z,87.75
2022-12-11T05:29:32.704Z,87.54
2022-12-11T05:32:05.126Z,87.18
2022-12-11T05:34:35.187Z,88.67
2022-12-11T05:37:05.057Z,89.03
2022-12-11T05:39:34.875Z,89.16
2022-12-11T05:42:04.703Z,89.15
2022-12-11T05:44:34.529Z,89.21
2022-12-11T05:47:07.025Z,89.53
2022-12-11T05:49:36.822Z,88.49
2022-12-11T05:52:06.801Z,88.76
2022-12-11T05:54:36.637Z,89.20
2022-12-11T05:57:06.491Z,89.26
2022-12-11T05:59:36.357Z,89.33
2022-12-11T06:02:08.852Z,89.11
2022-12-11T06:04:38.786Z,89.12
2022-12-11T06:07:08.620Z,89.09
2022-12-11T06:09:38.470Z,88.74
2022-12-11T06:12:08.595Z,88.83
2022-12-11T06:14:38.458Z,88.71
2022-12-11T06:17:10.901Z,88.39
2022-12-11T06:19:41.026Z,88.17
2022-12-11T06:22:10.861Z,88.34
2022-12-11T06:24:40.838Z,88.55
2022-12-11T06:27:10.653Z,88.60
2022-12-11T06:29:40.489Z,88.65
2022-12-11T06:32:12.968Z,88.61
2022-12-11T06:34:43.005Z,89.07
2022-12-11T06:37:12.808Z,88.60
2022-12-11T06:39:42.693Z,89.03
2022-12-11T06:42:13.523Z,89.24
2022-12-11T06:44:43.372Z,88.91
2022-12-11T06:47:15.810Z,89.25
2022-12-11T06:49:45.658Z,88.80
2022-12-11T06:52:18.574Z,88.09
2022-12-11T06:54:48.761Z,87.62
2022-12-11T06:57:19.488Z,88.90
2022-12-11T06:59:49.536Z,90.46
2022-12-11T07:02:23.337Z,90.81
2022-12-11T07:04:55.273Z,90.77
2022-12-11T07:07:25.307Z,90.44
2022-12-11T07:09:55.238Z,89.72
2022-12-11T07:12:25.104Z,89.73
2022-12-11T07:14:54.925Z,89.36
2022-12-11T07:17:27.395Z,89.78
2022-12-11T07:19:58.045Z,90.82
2022-12-11T07:22:27.834Z,90.67
2022-12-11T07:24:57.664Z,90.93
2022-12-11T07:27:27.483Z,91.27
2022-12-11T07:29:57.893Z,91.12
2022-12-11T07:32:30.384Z,91.09
2022-12-11T07:35:00.314Z,91.57
2022-12-11T07:37:30.188Z,91.56
2022-12-11T07:40:00.093Z,91.69
2022-12-11T07:42:30.972Z,91.37
2022-12-11T07:45:00.995Z,91.01
2022-12-11T07:47:33.525Z,90.76
2022-12-11T07:50:03.458Z,90.71
2022-12-11T07:52:36.236Z,90.39
2022-12-11T07:55:06.705Z,90.44
2022-12-11T07:57:36.593Z,89.83
2022-12-11T08:00:07.540Z,89.46
2022-12-11T08:02:44.887Z,89.09
2022-12-11T08:05:15.004Z,89.02
2022-12-11T08:07:44.949Z,89.37
2022-12-11T08:10:14.873Z,88.92
2022-12-11T08:12:44.933Z,89.03
2022-12-11T08:15:14.802Z,88.99
2022-12-11T08:17:47.288Z,89.26
2022-12-11T08:20:17.200Z,89.29
2022-12-11T08:22:47.061Z,88.86
2022-12-11T08:25:16.914Z,88.87
2022-12-11T08:27:46.866Z,88.40
2022-12-11T08:30:17.149Z,88.44
2022-12-11T08:32:49.789Z,87.90
2022-12-11T08:35:19.766Z,87.12
2022-12-11T08:37:49.698Z,87.53
2022-12-11T08:40:20.405Z,87.34
2022-12-11T08:42:50.353Z,88.27
2022-12-11T08:45:20.277Z,88.35
2022-12-11T08:47:53.990Z,88.45
2022-12-11T08:50:23.931Z,88.12
2022-12-11T08:52:53.973Z,87.62
2022-12-11T08:55:24.810Z,87.16
2022-12-11T08:57:54.726Z,87.40
2022-12-11T09:00:24.703Z,86.81
2022-12-11T09:02:57.263Z,87.04
2022-12-11T09:05:27.242Z,87.30
2022-12-11T09:07:57.200Z,87.54
2022-12-11T09:10:27.258Z,88.31
2022-12-11T09:12:58.123Z,86.98
2022-12-11T09:15:28.136Z,87.38
2022-12-11T09:18:00.719Z,87.81
2022-12-11T09:20:30.687Z,88.01
2022-12-11T09:23:00.639Z,87.79
2022-12-11T09:25:30.577Z,87.87
2022-12-11T09:28:00.483Z,86.90
2022-12-11T09:30:30.495Z,87.65
2022-12-11T09:33:03.307Z,87.76
2022-12-11T09:35:33.203Z,88.63
2022-12-11T09:38:03.164Z,88.50
2022-12-11T09:40:34.465Z,88.02
2022-12-11T09:43:09.460Z,87.62
2022-12-11T09:45:39.454Z,88.28
2022-12-11T09:48:14.063Z,88.42
2022-12-11T09:50:44.725Z,87.38
2022-12-11T09:53:19.322Z,87.92
2022-12-11T09:55:56.312Z,87.01
2022-12-11T09:58:34.593Z,86.87
2022-12-11T10:01:11.919Z,87.65
2022-12-11T10:03:58.364Z,88.39
2022-12-11T10:06:35.954Z,88.14
2022-12-11T10:09:16.953Z,87.43
2022-12-11T10:11:59.173Z,87.29
2022-12-11T10:14:38.662Z,86.92
2022-12-11T10:17:14.268Z,87.29
2022-12-11T10:19:46.833Z,87.92
2022-12-11T10:22:23.298Z,87.22
2022-12-11T10:25:14.266Z,88.35
2022-12-11T10:27:45.241Z,87.84
2022-12-11T10:30:19.519Z,87.64
2022-12-11T10:32:55.256Z,86.91
2022-12-11T10:35:36.301Z,86.49
2022-12-11T10:38:15.306Z,86.17
2022-12-11T10:40:47.830Z,86.49
2022-12-11T10:43:18.004Z,86.06
2022-12-11T10:45:55.523Z,85.87
2022-12-11T10:48:25.770Z,85.54
2022-12-11T10:51:07.176Z,85.28
2022-12-11T10:53:37.640Z,85.42
2022-12-11T10:56:09.432Z,85.79
2022-12-11T10:58:43.299Z,85.51
2022-12-11T11:01:17.837Z,86.36
2022-12-11T11:03:58.120Z,86.08
2022-12-11T11:06:30.865Z,85.91
2022-12-11T11:09:03.086Z,85.74
2022-12-11T11:11:36.830Z,86.10
2022-12-11T11:14:16.597Z,86.01
2022-12-11T11:16:48.743Z,85.83
2022-12-11T11:19:25.966Z,85.16
2022-12-11T11:22:01.877Z,85.69
2022-12-11T11:24:37.889Z,85.82
2022-12-11T11:27:15.930Z,84.76
2022-12-11T11:29:52.825Z,86.05
2022-12-11T11:32:26.354Z,85.22
2022-12-11T11:34:56.375Z,84.78
2022-12-11T11:37:34.797Z,84.48
2022-12-11T11:40:14.746Z,84.85
2022-12-11T11:42:50.226Z,85.11
2022-12-11T11:45:26.994Z,85.47
2022-12-11T11:48:11.117Z,85.78
2022-12-11T11:50:50.513Z,85.74
2022-12-11T11:53:29.870Z,85.43
2022-12-11T11:56:08.484Z,85.33
2022-12-11T11:58:44.591Z,85.88
2022-12-11T12:01:18.859Z,86.09
2022-12-11T12:03:50.574Z,85.86
2022-12-11T12:06:31.652Z,84.53
2022-12-11T12:09:13.072Z,84.27
2022-12-11T12:11:47.667Z,84.96
2022-12-11T12:14:51.100Z,84.98
2022-12-11T12:17:23.329Z,84.69
2022-12-11T12:20:04.390Z,84.69
2022-12-11T12:22:48.164Z,85.19
2022-12-11T12:25:29.895Z,85.08
2022-12-11T12:28:08.561Z,85.57
2022-12-11T12:30:48.412Z,85.83
2022-12-11T12:33:32.689Z,85.59
2022-12-11T12:36:09.023Z,85.36
2022-12-11T12:38:47.163Z,86.27
2022-12-11T12:41:25.432Z,86.42
2022-12-11T12:44:07.664Z,86.02
2022-12-11T12:46:52.326Z,85.77
2022-12-11T12:49:37.140Z,86.05
2022-12-11T12:52:13.284Z,85.75
2022-12-11T12:55:05.586Z,86.52
2022-12-11T12:57:41.389Z,87.15
2022-12-11T13:00:13.675Z,88.22
2022-12-11T13:02:53.860Z,87.79
2022-12-11T13:05:26.142Z,88.12
2022-12-11T13:08:00.026Z,88.21
2022-12-11T13:10:34.131Z,87.58
2022-12-11T13:13:08.303Z,87.32
2022-12-11T13:15:43.707Z,88.21
2022-12-11T13:18:33.607Z,86.90
2022-12-11T13:21:03.896Z,87.78
2022-12-11T13:23:36.123Z,86.14
2022-12-11T13:26:07.603Z,86.13
2022-12-11T13:28:51.930Z,85.69
2022-12-11T13:31:38.123Z,86.38
2022-12-11T13:34:18.989Z,87.14
2022-12-11T13:36:53.846Z,87.50
2022-12-11T13:39:27.737Z,86.80
2022-12-11T13:42:05.087Z,86.79
2022-12-11T13:44:42.085Z,86.31
2022-12-11T13:47:17.737Z,86.30
2022-12-11T13:49:51.617Z,86.50
2022-12-11T13:52:23.332Z,86.76
2022-12-11T13:54:55.545Z,86.66
2022-12-11T13:57:28.451Z,86.65
2022-12-11T14:00:02.287Z,86.82
2022-12-11T14:02:38.603Z,86.85
2022-12-11T14:05:13.048Z,86.65
2022-12-11T14:07:46.238Z,86.62
2022-12-11T14:10:20.990Z,86.46
2022-12-11T14:12:56.486Z,86.47
2022-12-11T14:15:29.545Z,86.36
2022-12-11T14:18:00.795Z,86.32
2022-12-11T14:20:33.800Z,86.51
2022-12-11T14:23:10.588Z,86.32
2022-12-11T14:25:40.466Z,86.53
2022-12-11T14:28:19.614Z,86.46
2022-12-11T14:30:54.507Z,87.00
2022-12-11T14:33:28.865Z,86.82
2022-12-11T14:35:59.250Z,87.02
2022-12-11T14:38:32.198Z,87.15
2022-12-11T14:41:06.352Z,87.17
2022-12-11T14:43:42.100Z,86.64
2022-12-11T14:46:21.700Z,86.76
2022-12-11T14:49:00.649Z,86.78
2022-12-11T14:51:36.602Z,87.15
2022-12-11T14:54:07.761Z,87.66
2022-12-11T14:56:38.100Z,87.58
2022-12-11T14:59:11.152Z,87.27
2022-12-11T15:01:43.714Z,87.45
2022-12-11T15:04:26.939Z,87.61
2022-12-11T15:06:56.880Z,87.89
2022-12-11T15:09:30.625Z,87.94
2022-12-11T15:12:11.233Z,87.76
2022-12-11T15:14:50.302Z,87.63
2022-12-11T15:17:23.605Z,87.97
2022-12-11T15:19:56.142Z,87.35
2022-12-11T15:22:33.127Z,87.69
2022-12-11T15:25:03.760Z,87.85
2022-12-11T15:27:36.899Z,88.04
2022-12-11T15:30:18.929Z,87.62
2022-12-11T15:32:51.510Z,88.31
2022-12-11T15:35:26.342Z,88.59
2022-12-11T15:37:57.309Z,88.79
2022-12-11T15:40:27.995Z,88.57
2022-12-11T15:42:58.752Z,88.92
2022-12-11T15:45:30.854Z,88.96
2022-12-11T15:48:03.400Z,89.37
2022-12-11T15:50:33.436Z,88.71
2022-12-11T15:53:03.328Z,88.40
2022-12-11T15:55:35.113Z,88.66
2022-12-11T15:58:09.963Z,88.28
2022-12-11T16:00:39.914Z,88.24
2022-12-11T16:03:14.037Z,86.62
2022-12-11T16:05:44.807Z,86.68
2022-12-11T16:08:17.212Z,86.69
2022-12-11T16:10:48.342Z,86.44
2022-12-11T16:13:18.552Z,86.47
2022-12-11T16:15:51.049Z,86.37
2022-12-11T16:18:26.548Z,86.17
2022-12-11T16:20:56.549Z,84.51
2022-12-11T16:23:29.329Z,82.88
2022-12-11T16:25:59.248Z,82.75
2022-12-11T16:28:29.165Z,83.76
2022-12-11T16:30:59.938Z,84.02
2022-12-11T16:33:32.581Z,83.51
2022-12-11T16:36:02.502Z,84.06
2022-12-11T16:38:32.437Z,83.24
2022-12-11T16:41:03.540Z,83.41
2022-12-11T16:43:34.906Z,83.49
2022-12-11T16:46:04.884Z,82.46
2022-12-11T16:48:37.450Z,81.68
2022-12-11T16:51:07.550Z,82.07
2022-12-11T16:53:37.541Z,82.24
2022-12-11T16:56:08.192Z,82.24
2022-12-11T16:58:38.284Z,82.61
2022-12-11T17:01:12.242Z,82.34
2022-12-11T17:03:46.026Z,82.97
2022-12-11T17:06:19.142Z,83.55
2022-12-11T17:08:49.656Z,83.51
2022-12-11T17:11:22.183Z,83.33
2022-12-11T17:13:56.151Z,84.22
2022-12-11T17:16:30.373Z,83.69
2022-12-11T17:19:03.510Z,83.59
2022-12-11T17:21:33.452Z,84.12
2022-12-11T17:24:03.435Z,83.28
2022-12-11T17:26:33.485Z,82.92
2022-12-11T17:29:03.586Z,82.88
2022-12-11T17:31:33.673Z,83.20
2022-12-11T17:34:06.731Z,83.47
2022-12-11T17:36:37.448Z,83.68
2022-12-11T17:39:07.443Z,83.68
2022-12-11T17:41:37.338Z,83.96
2022-12-11T17:44:07.280Z,85.21
2022-12-11T17:46:37.212Z,85.72
2022-12-11T17:49:09.774Z,86.19
2022-12-11T17:51:39.947Z,86.76
2022-12-11T17:54:09.964Z,86.09
2022-12-11T17:56:40.622Z,86.07
2022-12-11T17:59:10.561Z,86.02
2022-12-11T18:01:40.658Z,85.98
2022-12-11T18:04:13.297Z,85.52
2022-12-11T18:06:43.583Z,85.57
2022-12-11T18:09:13.483Z,85.86
2022-12-11T18:11:44.191Z,85.63
2022-12-11T18:14:17.350Z,85.11
2022-12-11T18:16:48.471Z,85.37
2022-12-11T18:19:22.776Z,85.06
2022-12-11T18:21:52.888Z,85.31
2022-12-11T18:24:25.854Z,85.75
2022-12-11T18:26:55.783Z,86.10
2022-12-11T18:29:25.711Z,86.18
2022-12-11T18:31:55.714Z,85.53
2022-12-11T18:34:28.446Z,85.13
2022-12-11T18:36:58.632Z,84.84
2022-12-11T18:39:28.717Z,84.70
2022-12-11T18:42:31.223Z,84.88
2022-12-11T18:44:48.562Z,85.12
2022-12-11T18:47:19.493Z,85.28
2022-12-11T18:49:52.078Z,85.55
2022-12-11T18:52:22.108Z,85.70
2022-12-11T18:54:52.408Z,85.78
2022-12-11T18:57:22.392Z,85.48
2022-12-11T18:59:54.123Z,85.16
2022-12-11T19:02:24.730Z,85.35
2022-12-11T19:04:57.355Z,85.38
2022-12-11T19:07:27.426Z,85.49
2022-12-11T19:09:57.379Z,86.11
2022-12-11T19:12:27.407Z,86.11
2022-12-11T19:14:57.502Z,86.03
2022-12-11T19:17:27.539Z,86.18
2022-12-11T19:20:05.345Z,85.98
2022-12-11T19:22:49.453Z,86.65
2022-12-11T19:25:19.527Z,86.32
2022-12-11T19:27:50.549Z,85.52
2022-12-11T19:30:20.540Z,85.86
2022-12-11T19:32:50.433Z,86.11
2022-12-11T19:35:22.961Z,85.74
2022-12-11T19:37:52.927Z,86.92
2022-12-11T19:40:26.250Z,85.76
2022-12-11T19:42:56.546Z,86.05
2022-12-11T19:45:26.437Z,86.25
2022-12-11T19:47:56.367Z,86.93
2022-12-11T19:50:28.904Z,87.41
2022-12-11T19:52:58.836Z,87.67
2022-12-11T19:55:28.923Z,88.01
2022-12-11T19:57:58.882Z,87.96
2022-12-11T20:00:28.851Z,88.27
2022-12-11T20:02:58.874Z,87.93
2022-12-11T20:05:31.378Z,87.77
2022-12-11T20:08:27.413Z,87.80
2022-12-11T20:10:51.751Z,87.96
2022-12-11T20:13:21.768Z,87.56
2022-12-11T20:15:52.119Z,87.04
2022-12-11T20:18:22.094Z,87.15
2022-12-11T20:20:54.595Z,86.85
2022-12-11T20:23:24.566Z,87.12
2022-12-11T20:25:58.781Z,87.15
2022-12-11T20:28:29.316Z,87.51
2022-12-11T20:31:06.699Z,86.82
2022-12-11T20:33:37.019Z,87.17
2022-12-11T20:36:13.772Z,87.23
2022-12-11T20:38:44.301Z,87.64
2022-12-11T20:41:16.955Z,87.69
2022-12-11T20:43:47.076Z,88.18
2022-12-11T20:46:18.608Z,88.52
2022-12-11T20:48:50.794Z,89.19
2022-12-11T20:51:26.628Z,88.69
2022-12-11T20:54:01.278Z,88.74
2022-12-11T20:56:33.194Z,88.30
2022-12-11T20:59:03.550Z,87.67
2022-12-11T21:01:36.794Z,88.03
2022-12-11T21:04:06.726Z,88.38
2022-12-11T21:06:42.130Z,88.21
2022-12-11T21:09:15.786Z,88.64
2022-12-11T21:11:46.783Z,88.60
2022-12-11T21:14:27.674Z,88.33
2022-12-11T21:16:58.023Z,88.65
2022-12-11T21:19:28.393Z,88.43
2022-12-11T21:21:58.377Z,87.31
2022-12-11T21:24:30.118Z,86.81
2022-12-11T21:27:01.917Z,86.17
2022-12-11T21:29:34.515Z,85.66
2022-12-11T21:32:04.455Z,85.51
2022-12-11T21:34:34.368Z,87.17
2022-12-11T21:37:04.244Z,86.96
2022-12-11T21:39:39.185Z,87.68
2022-12-11T21:42:09.401Z,87.89
2022-12-11T21:45:37.493Z,88.53
2022-12-11T21:47:31.647Z,88.88
2022-12-11T21:50:01.490Z,88.03
2022-12-11T21:52:31.258Z,88.03
2022-12-11T21:55:01.094Z,88.27
2022-12-11T21:57:30.968Z,88.15
2022-12-11T22:00:04.406Z,86.95
2022-12-11T22:02:41.910Z,87.72
2022-12-11T22:05:12.747Z,88.56
2022-12-11T22:07:42.775Z,87.95
2022-12-11T22:10:13.411Z,87.56
2022-12-11T22:12:43.181Z,87.85
2022-12-11T22:15:15.696Z,88.31
2022-12-11T22:17:45.599Z,88.51
2022-12-11T22:20:15.449Z,88.50
2022-12-11T22:22:46.728Z,88.66
2022-12-11T22:25:16.731Z,88.81
2022-12-11T22:27:46.739Z,88.34
2022-12-11T22:30:19.536Z,88.14
2022-12-11T22:32:51.330Z,88.03
2022-12-11T22:35:26.858Z,87.60
2022-12-11T22:37:57.174Z,88.14
2022-12-11T22:40:27.064Z,87.94
2022-12-11T22:42:57.056Z,87.41
2022-12-11T22:45:29.482Z,87.16
2022-12-11T22:47:59.282Z,86.89
2022-12-11T22:50:29.138Z,86.47
2022-12-11T22:52:58.908Z,86.40
2022-12-11T22:55:29.765Z,86.41
2022-12-11T22:57:59.569Z,86.36
2022-12-11T23:00:31.923Z,86.36
2022-12-11T23:03:02.200Z,85.94
2022-12-11T23:05:32.455Z,86.11
2022-12-11T23:08:02.405Z,85.90
2022-12-11T23:10:32.241Z,85.79
2022-12-11T23:13:01.986Z,85.33
2022-12-11T23:15:34.368Z,85.08
2022-12-11T23:18:04.585Z,85.17
2022-12-11T23:20:34.405Z,84.96
2022-12-11T23:23:04.152Z,84.61
2022-12-11T23:25:33.903Z,84.68
2022-12-11T23:28:03.826Z,85.31
2022-12-11T23:30:36.287Z,85.47
2022-12-11T23:33:06.581Z,85.09
2022-12-11T23:35:36.557Z,85.35
2022-12-11T23:38:06.438Z,84.97
2022-12-11T23:40:36.629Z,84.87
2022-12-11T23:43:06.557Z,85.28
2022-12-11T23:45:38.918Z,85.26
2022-12-11T23:48:08.707Z,85.27
2022-12-11T23:50:38.509Z,85.19
2022-12-11T23:53:08.305Z,85.94
2022-12-11T23:55:40.738Z,86.18
2022-12-11T23:58:10.855Z,86.70
